Time;durP1;ratioP1;P1;durP2;ratioP2;P2;SDS_P1;SDS_P2;PMS_P1;PMS_P2;Temp;Humidity;BMP_temperature;BMP_pressure;BME280_temperature;BME280_humidity;BME280_pressure;Samples;Min_cycle;Max_cycle;Signal;HPM_P1;HPM_P2
2022/08/24 00:01:13;;;;;;;6.40;5.90;;;16.30;99.90;;;17.26;74.27;98071.97;5221161;28;20343;-64
2022/08/24 00:03:48;;;;;;;6.20;5.68;;;16.30;99.90;;;17.24;74.57;98073.59;5221346;28;20273;-64
2022/08/24 00:06:28;;;;;;;6.63;6.00;;;16.20;99.90;;;17.14;73.95;98068.94;5221054;28;20582;-64
2022/08/24 00:09:01;;;;;;;5.75;5.25;;;16.20;99.90;;;17.13;73.97;98069.78;5222840;28;20648;-64
2022/08/24 00:11:36;;;;;;;5.88;5.47;;;16.10;99.90;;;17.05;74.25;98067.81;5223644;28;20197;-67
2022/08/24 00:14:10;;;;;;;5.88;5.47;;;16.10;99.90;;;17.02;74.45;98070.25;5219712;28;20221;-66
2022/08/24 00:16:43;;;;;;;6.20;5.53;;;16.10;99.90;;;16.98;74.65;98070.13;5220531;28;20658;-66
2022/08/24 00:19:17;;;;;;;5.95;5.45;;;16.00;99.90;;;16.98;74.32;98072.69;5223290;28;20212;-66
2022/08/24 00:21:50;;;;;;;5.97;5.53;;;16.00;99.90;;;16.86;74.63;98076.59;5221888;28;20248;-65
2022/08/24 00:24:24;;;;;;;6.00;5.50;;;16.00;99.90;;;16.95;74.42;98068.31;5221239;28;20766;-66
2022/08/24 00:26:59;;;;;;;6.55;5.95;;;16.10;99.90;;;16.96;74.14;98072.63;5221028;28;20259;-66
2022/08/24 00:29:33;;;;;;;6.43;5.93;;;16.10;99.90;;;16.94;74.75;98078.56;5223344;28;20680;-64
2022/08/24 00:32:07;;;;;;;6.70;6.00;;;16.00;99.90;;;16.92;74.65;98081.13;5222079;28;20253;-64
2022/08/24 00:34:40;;;;;;;6.75;6.25;;;16.00;99.90;;;16.91;74.54;98076.75;5220783;28;21767;-66
2022/08/24 00:37:24;;;;;;;6.40;6.00;;;16.00;99.90;;;16.93;74.67;98077.69;5219022;28;20567;-64
2022/08/24 00:39:58;;;;;;;6.45;5.95;;;16.00;99.90;;;16.93;74.93;98079.41;5220501;28;20216;-63
2022/08/24 00:42:33;;;;;;;5.95;5.55;;;16.00;99.90;;;16.89;74.54;98086.16;5222258;28;20231;-64
2022/08/24 00:45:10;;;;;;;5.85;5.45;;;15.90;99.90;;;16.83;74.42;98083.38;5221135;28;20726;-65
2022/08/24 00:47:49;;;;;;;6.38;5.97;;;15.90;99.90;;;16.80;74.29;98080.69;5218062;28;20671;-64
2022/08/24 00:50:27;;;;;;;6.22;5.72;;;15.90;99.90;;;16.83;74.41;98080.78;5214056;28;20205;-68
2022/08/24 00:53:06;;;;;;;6.88;6.28;;;15.90;99.90;;;16.81;74.92;98078.13;5220382;28;20708;-65
2022/08/24 00:55:45;;;;;;;6.57;6.10;;;15.90;99.90;;;16.83;74.79;98080.78;5223639;28;20236;-65
2022/08/24 00:58:26;;;;;;;6.18;5.70;;;15.90;99.90;;;16.75;75.11;98079.59;5221450;28;20643;-64
2022/08/24 01:01:03;;;;;;;6.82;6.32;;;15.80;99.90;;;16.70;75.19;98078.53;5219902;28;20754;-65
2022/08/24 01:03:38;;;;;;;6.72;5.95;;;15.70;99.90;;;16.64;75.22;98082.66;5219298;28;20644;-64
2022/08/24 01:06:12;;;;;;;6.93;5.97;;;15.70;99.90;;;16.61;75.90;98085.13;5219233;28;20197;-64
2022/08/24 01:08:46;;;;;;;6.03;5.60;;;15.60;99.90;;;16.57;75.64;98082.41;5221111;28;20723;-63
2022/08/24 01:11:32;;;;;;;6.80;6.05;;;15.60;99.90;;;16.53;75.62;98083.94;5215521;28;20244;-64
2022/08/24 01:14:07;;;;;;;6.22;5.78;;;15.50;99.90;;;16.48;76.05;98085.47;5219577;28;20256;-64
2022/08/24 01:19:38;;;;;;;7.07;6.57;;;15.50;99.90;;;16.42;77.14;98082.66;5214075;28;20205;-64
2022/08/24 01:22:53;;;;;;;7.47;6.97;;;15.50;99.90;;;16.39;77.14;98083.44;5216869;28;20229;-63
2022/08/24 01:25:32;;;;;;;7.20;6.60;;;15.50;99.90;;;16.41;77.16;98086.97;5203546;28;20228;-64
2022/08/24 01:28:10;;;;;;;6.78;6.28;;;15.50;99.90;;;16.37;77.05;98081.66;5220703;28;20196;-65
2022/08/24 01:30:44;;;;;;;6.93;6.43;;;15.50;99.90;;;16.32;76.72;98086.63;5218575;28;20205;-67
2022/08/24 01:33:27;;;;;;;6.60;6.13;;;15.50;99.90;;;16.34;76.18;98084.06;5220862;28;20843;-64
2022/08/24 01:36:07;;;;;;;6.55;6.05;;;15.50;99.90;;;16.35;76.34;98085.84;5220209;28;20256;-66
2022/08/24 01:38:41;;;;;;;6.75;6.30;;;15.50;99.90;;;16.31;76.60;98089.13;5217956;28;20236;-66
2022/08/24 01:41:15;;;;;;;6.97;6.43;;;15.40;99.90;;;16.25;76.87;98083.72;5217222;28;20289;-64
2022/08/24 01:43:48;;;;;;;6.78;6.18;;;15.30;99.90;;;16.19;77.27;98084.38;5216179;28;20248;-65
2022/08/24 01:46:22;;;;;;;6.32;5.80;;;15.20;99.90;;;16.13;77.37;98087.59;5220675;28;20253;-64
2022/08/24 01:48:57;;;;;;;6.40;6.00;;;15.20;99.90;;;16.10;77.40;98095.22;5219136;28;20201;-65
2022/08/24 01:51:32;;;;;;;6.85;6.35;;;15.10;99.90;;;16.04;78.02;98094.97;5220744;28;20197;-64
2022/08/24 01:54:07;;;;;;;7.30;6.63;;;15.10;99.90;;;15.98;78.65;98085.31;5219370;28;20228;-64
2022/08/24 01:56:42;;;;;;;7.82;7.10;;;15.00;99.90;;;15.99;77.84;98093.91;5216454;28;20749;-65
2022/08/24 01:59:18;;;;;;;7.30;6.60;;;14.90;99.90;;;15.91;78.43;98088.47;5214205;28;20205;-66
2022/08/24 02:01:57;;;;;;;8.02;7.00;;;14.90;99.90;;;15.84;78.87;98090.75;5217227;28;20639;-64
2022/08/24 02:04:33;;;;;;;7.70;6.97;;;14.80;99.90;;;15.82;79.15;98089.78;5214577;28;20249;-67
2022/08/24 02:07:08;;;;;;;7.22;6.57;;;14.90;99.90;;;15.86;79.01;98086.53;5216991;28;20240;-66
2022/08/24 02:09:41;;;;;;;8.18;6.95;;;14.90;99.90;;;15.79;79.54;98082.81;5211355;28;20205;-65
2022/08/24 02:12:17;;;;;;;7.72;7.10;;;14.90;99.90;;;15.84;79.05;98085.59;5214801;28;20290;-67
2022/08/24 02:14:51;;;;;;;7.38;6.72;;;14.90;99.90;;;15.81;79.30;98085.47;5219984;28;20218;-64
2022/08/24 02:17:24;;;;;;;7.53;6.82;;;14.90;99.90;;;15.82;79.56;98092.38;5220883;28;20198;-66
2022/08/24 02:19:57;;;;;;;6.88;6.28;;;14.90;99.90;;;15.81;79.35;98094.06;5218734;28;20259;-65
2022/08/24 02:22:30;;;;;;;7.35;6.75;;;14.80;99.90;;;15.73;79.58;98104.06;5220667;28;20239;-65
2022/08/24 02:25:05;;;;;;;7.70;7.00;;;14.80;99.90;;;15.68;79.99;98103.03;5220259;28;20233;-64
2022/08/24 02:27:42;;;;;;;7.00;6.40;;;14.70;99.90;;;15.72;79.94;98088.56;5221217;28;20204;-67
2022/08/24 02:30:16;;;;;;;7.38;6.78;;;14.80;99.90;;;15.64;79.76;98098.50;5225733;28;20605;-64
2022/08/24 02:32:49;;;;;;;7.95;7.35;;;14.70;99.90;;;15.60;80.34;98100.91;5224002;28;20209;-65
2022/08/24 02:35:23;;;;;;;6.63;6.13;;;14.70;99.90;;;15.54;80.44;98098.97;5224213;28;20640;-64
2022/08/24 02:37:57;;;;;;;7.35;6.75;;;14.60;99.90;;;15.57;80.22;98096.50;5223642;28;20288;-67
2022/08/24 02:40:31;;;;;;;7.63;6.82;;;14.60;99.90;;;15.55;79.87;98093.84;5225270;28;20459;-64
2022/08/24 02:43:06;;;;;;;7.60;7.00;;;14.60;99.90;;;15.51;80.40;98091.09;5225123;28;20314;-63
2022/08/24 02:45:41;;;;;;;6.72;6.22;;;14.60;99.90;;;15.47;80.37;98094.34;5223719;28;20197;-66
2022/08/24 02:48:14;;;;;;;6.70;6.30;;;14.50;99.90;;;15.49;79.86;98090.16;5220666;28;20653;-65
2022/08/24 02:50:50;;;;;;;6.82;6.25;;;14.50;99.90;;;15.39;79.26;98093.16;5219267;28;20759;-64
2022/08/24 02:53:24;;;;;;;6.78;6.28;;;14.50;99.90;;;15.35;79.31;98093.84;5222627;28;20225;-66
2022/08/24 02:55:58;;;;;;;7.57;6.88;;;14.40;99.90;;;15.25;79.17;98092.56;5223572;28;20217;-66
2022/08/24 02:58:32;;;;;;;6.05;5.65;;;14.40;99.90;;;15.29;78.69;98090.19;5223243;28;20292;-65
2022/08/24 03:01:07;;;;;;;6.57;6.07;;;14.30;99.90;;;15.28;79.23;98096.16;5223777;28;20228;-64
2022/08/24 03:03:56;;;;;;;6.57;6.18;;;14.40;99.90;;;15.33;79.35;98092.06;5219532;28;20225;-64
2022/08/24 03:06:30;;;;;;;6.38;5.93;;;14.50;99.90;;;15.31;79.25;98093.72;5223191;28;20547;-64
2022/08/24 03:09:03;;;;;;;5.78;5.47;;;14.40;99.90;;;15.29;79.75;98105.66;5224044;28;20232;-64
2022/08/24 03:11:37;;;;;;;5.80;5.30;;;14.40;99.90;;;15.27;79.38;98096.09;5223827;28;20233;-66
2022/08/24 03:14:12;;;;;;;7.13;6.63;;;14.30;99.90;;;15.27;79.97;98102.13;5222867;28;20780;-64
2022/08/24 03:16:45;;;;;;;6.45;6.05;;;14.30;99.90;;;15.15;80.18;98095.59;5221824;28;20228;-64
2022/08/24 03:19:19;;;;;;;6.63;6.03;;;14.20;99.90;;;15.07;80.37;98097.81;5219678;28;20282;-63
2022/08/24 03:21:53;;;;;;;6.90;6.40;;;14.20;99.90;;;15.08;80.59;98097.91;5222717;28;20650;-64
2022/08/24 03:24:26;;;;;;;7.15;6.65;;;14.20;99.90;;;15.07;80.14;98087.50;5223609;28;20229;-64
2022/08/24 03:26:59;;;;;;;7.85;7.15;;;14.20;99.90;;;15.08;80.35;98090.19;5222587;28;20282;-64
2022/08/24 03:29:35;;;;;;;7.45;6.95;;;14.20;99.90;;;15.10;81.23;98092.78;5222686;28;20568;-65
2022/08/24 03:32:09;;;;;;;7.55;6.97;;;14.30;99.90;;;15.09;80.65;98088.47;5223194;28;20719;-64
2022/08/24 03:34:42;;;;;;;7.93;7.35;;;14.20;99.90;;;15.11;80.60;98092.00;5222308;28;20329;-65
2022/08/24 03:37:16;;;;;;;7.43;6.90;;;14.20;99.90;;;15.09;81.20;98097.06;5221871;28;20316;-64
2022/08/24 03:39:49;;;;;;;7.70;7.00;;;14.20;99.90;;;15.11;80.59;98099.72;5219775;28;20237;-65
2022/08/24 03:42:23;;;;;;;7.63;7.03;;;14.30;99.90;;;15.10;81.74;98095.38;5219167;28;20206;-67
2022/08/24 03:44:57;;;;;;;7.45;6.75;;;14.30;99.90;;;15.15;80.85;98096.47;5221138;28;20256;-63
2022/08/24 03:47:30;;;;;;;7.25;6.75;;;14.30;99.90;;;15.19;81.31;98089.72;5225732;28;20631;-63
2022/08/24 03:50:06;;;;;;;7.90;7.20;;;14.30;99.90;;;15.15;80.90;98096.47;5221058;28;20229;-64
2022/08/24 03:52:40;;;;;;;7.70;7.10;;;14.30;99.90;;;15.07;81.16;98092.66;5222050;28;20298;-66
2022/08/24 03:55:13;;;;;;;7.20;6.70;;;14.20;99.90;;;15.03;80.85;98090.78;5222275;28;20201;-65
2022/08/24 03:57:47;;;;;;;7.55;6.82;;;14.10;99.90;;;14.97;81.08;98093.97;5222114;28;20264;-64
2022/08/24 04:00:22;;;;;;;7.30;6.72;;;14.00;99.90;;;14.88;81.00;98101.31;5220548;28;20242;-66
2022/08/24 04:02:55;;;;;;;7.03;6.43;;;13.90;99.90;;;14.81;81.95;98099.25;5222103;28;20252;-63
2022/08/24 04:05:28;;;;;;;7.38;6.78;;;13.90;99.90;;;14.75;81.81;98099.88;5221417;28;20209;-65
2022/08/24 04:08:08;;;;;;;7.90;7.30;;;13.80;99.90;;;14.71;82.19;98092.84;5221435;28;20198;-64
2022/08/24 04:10:45;;;;;;;6.97;6.47;;;13.70;99.90;;;14.67;82.97;98097.75;5222142;28;20238;-63
2022/08/24 04:13:18;;;;;;;8.15;7.30;;;13.70;99.90;;;14.66;83.25;98098.59;5221871;28;20245;-63
2022/08/24 04:15:53;;;;;;;6.53;6.13;;;13.70;99.90;;;14.64;82.81;98089.09;5221107;28;20217;-66
2022/08/24 04:18:26;;;;;;;6.97;6.47;;;13.70;99.90;;;14.62;83.12;98103.59;5222746;28;20311;-63
2022/08/24 04:21:01;;;;;;;6.38;5.88;;;13.70;99.90;;;14.60;81.80;98101.75;5220857;28;20208;-65
2022/08/24 04:23:34;;;;;;;6.18;5.78;;;13.60;99.90;;;14.51;82.04;98106.47;5222369;28;20639;-64
2022/08/24 04:26:22;;;;;;;6.63;6.22;;;13.50;99.90;;;14.43;81.74;98106.97;5223040;28;20669;-64
2022/08/24 04:29:19;;;;;;;7.00;6.50;;;13.50;99.90;;;14.32;82.24;98105.59;5221313;28;20707;-64
2022/08/24 04:31:54;;;;;;;6.82;6.22;;;13.40;99.90;;;14.39;82.03;98099.94;5222537;28;20257;-66
2022/08/24 04:34:27;;;;;;;6.95;6.47;;;13.50;99.90;;;14.47;82.73;98107.13;5220406;28;20227;-64
2022/08/24 04:37:00;;;;;;;7.22;6.63;;;13.60;99.90;;;14.36;84.01;98106.63;5218976;28;20317;-64
2022/08/24 04:39:34;;;;;;;7.10;6.60;;;13.60;99.90;;;14.43;84.03;98112.13;5222286;28;20205;-63
2022/08/24 04:42:08;;;;;;;8.38;7.68;;;13.60;99.90;;;14.41;84.27;98102.56;5220682;28;20202;-66
2022/08/24 04:44:41;;;;;;;8.23;7.45;;;13.60;99.90;;;14.49;84.09;98110.66;5218287;28;20383;-66
2022/08/24 04:47:16;;;;;;;8.02;7.43;;;13.70;99.90;;;14.60;84.03;98119.78;5219270;28;20221;-64
2022/08/24 04:49:49;;;;;;;7.95;7.25;;;13.80;99.90;;;14.57;83.89;98119.63;5221506;28;20680;-64
2022/08/24 04:52:23;;;;;;;8.45;7.70;;;13.70;99.90;;;14.54;83.70;98125.50;5223079;28;20248;-65
2022/08/24 04:54:56;;;;;;;8.50;7.90;;;13.70;99.90;;;14.50;83.46;98122.69;5220420;28;20225;-65
2022/08/24 04:57:29;;;;;;;8.05;7.38;;;13.70;99.90;;;14.53;83.30;98123.72;5220803;28;20221;-65
2022/08/24 05:00:08;;;;;;;8.52;7.78;;;13.70;99.90;;;14.58;83.24;98123.94;5220078;28;20211;-64
2022/08/24 05:02:42;;;;;;;8.18;7.57;;;13.80;99.90;;;14.62;84.30;98125.84;5218372;28;20233;-65
2022/08/24 05:05:17;;;;;;;8.00;7.40;;;13.90;99.90;;;14.73;83.66;98126.34;5220730;28;20240;-64
2022/08/24 05:07:50;;;;;;;7.80;7.18;;;14.00;99.90;;;14.91;82.71;98122.03;5220619;28;20631;-66
2022/08/24 05:10:28;;;;;;;7.60;7.10;;;14.10;99.90;;;14.99;82.19;98130.06;5220898;28;20197;-64
2022/08/24 05:13:06;;;;;;;8.43;7.72;;;14.20;99.90;;;15.05;82.06;98130.31;5221723;28;20307;-65
2022/08/24 05:15:42;;;;;;;8.20;7.60;;;14.30;99.90;;;15.02;82.65;98140.50;5218873;28;20634;-66
2022/08/24 05:18:18;;;;;;;7.88;7.32;;;14.10;99.90;;;15.00;82.36;98134.41;5221603;28;20211;-66
2022/08/24 05:20:51;;;;;;;8.07;7.40;;;14.10;99.90;;;15.02;82.54;98136.25;5222426;28;20223;-65
2022/08/24 05:23:25;;;;;;;8.32;7.63;;;14.10;99.90;;;15.16;82.36;98139.41;5221957;28;20248;-66
2022/08/24 05:26:06;;;;;;;8.00;7.20;;;14.20;99.90;;;15.50;81.26;98131.41;5222002;28;20244;-64
2022/08/24 05:28:40;;;;;;;7.38;6.88;;;14.50;99.90;;;15.92;79.99;98115.13;5222855;28;20278;-67
2022/08/24 05:31:17;;;;;;;7.13;6.53;;;14.90;99.90;;;16.41;77.25;98122.22;5221062;28;20743;-64
2022/08/24 05:33:52;;;;;;;7.95;7.35;;;15.20;99.90;;;16.65;75.77;98123.16;5220571;28;20248;-66
2022/08/24 05:36:28;;;;;;;7.18;6.57;;;15.30;99.90;;;17.05;73.54;98134.97;5221359;28;20228;-65
2022/08/24 05:39:05;;;;;;;6.40;5.85;;;15.50;99.90;;;17.34;71.98;98124.78;5221505;28;20232;-66
2022/08/24 05:41:45;;;;;;;7.15;6.60;;;15.80;99.90;;;17.79;70.48;98122.00;5223625;28;20190;-64
2022/08/24 05:44:18;;;;;;;6.70;6.10;;;16.10;99.90;;;18.26;68.43;98130.41;5223284;28;20224;-65
2022/08/24 05:46:53;;;;;;;6.43;5.97;;;16.50;99.90;;;18.69;66.52;98121.34;5222239;28;20204;-65
2022/08/24 05:49:28;;;;;;;6.82;6.10;;;17.30;99.90;;;19.18;65.04;98122.78;5222805;28;20199;-65
2022/08/24 05:52:02;;;;;;;7.05;6.30;;;18.10;99.90;;;19.29;63.95;98126.53;5218475;28;20991;-66
2022/08/24 05:54:35;;;;;;;6.53;5.93;;;18.10;99.90;;;19.76;62.64;98126.91;5219339;28;20693;-65
2022/08/24 05:57:08;;;;;;;7.10;6.40;;;18.50;99.90;;;20.01;61.53;98125.81;5217283;28;20632;-65
2022/08/24 05:59:42;;;;;;;6.07;5.57;;;18.70;99.90;;;20.58;59.94;98128.88;5218950;28;20232;-66
2022/08/24 06:02:16;;;;;;;6.45;5.85;;;19.10;99.90;;;21.02;58.84;98128.91;5218711;28;20229;-65
2022/08/24 06:04:51;;;;;;;6.07;5.65;;;19.40;99.90;;;21.44;57.22;98125.41;5223198;28;20213;-65
2022/08/24 06:07:25;;;;;;;5.80;5.22;;;19.70;99.90;;;21.87;55.75;98132.25;5225389;28;20212;-64
2022/08/24 06:09:59;;;;;;;5.90;5.47;;;19.90;99.90;;;22.28;54.12;98132.06;5225543;28;20204;-65
2022/08/24 06:12:52;;;;;;;6.38;5.78;;;20.20;99.00;;;22.75;52.45;98136.19;5225474;28;20225;-64
2022/08/24 06:15:26;;;;;;;5.93;5.35;;;20.30;98.50;;;22.85;51.91;98144.13;5225681;28;20243;-64
2022/08/24 06:17:59;;;;;;;5.80;5.30;;;20.20;98.40;;;22.96;51.97;98140.84;5222484;28;20659;-64
2022/08/24 06:20:40;;;;;;;5.90;5.30;;;20.70;97.90;;;23.11;50.93;98146.22;5219257;28;20205;-64
2022/08/24 06:23:14;;;;;;;5.35;4.95;;;20.70;97.60;;;22.85;51.98;98138.94;5224188;28;20554;-65
2022/08/24 06:28:38;;;;;;;5.38;4.97;;;20.70;96.60;;;22.94;50.78;98154.69;5225333;28;20239;-65
2022/08/24 06:31:12;;;;;;;6.05;5.45;;;20.60;96.60;;;22.90;50.54;98142.47;5222968;28;20197;-64
2022/08/24 06:33:46;;;;;;;5.53;4.97;;;20.90;95.80;;;22.90;51.22;98145.09;5226142;28;20564;-64
2022/08/24 06:36:22;;;;;;;5.28;4.90;;;20.80;96.60;;;23.55;50.13;98141.50;5220883;28;20633;-64
2022/08/24 06:38:55;;;;;;;5.72;5.30;;;21.60;95.10;;;23.68;48.64;98139.88;5219396;28;20652;-64
2022/08/24 06:41:30;;;;;;;5.68;5.18;;;21.40;94.60;;;24.13;48.15;98140.31;5223971;28;20681;-64
2022/08/24 06:44:04;;;;;;;5.50;5.10;;;21.90;94.50;;;24.52;47.58;98144.94;5224890;28;20715;-63
2022/08/24 06:46:38;;;;;;;5.13;4.72;;;22.30;93.50;;;24.60;47.21;98148.50;5224875;28;20201;-64
2022/08/24 06:49:11;;;;;;;5.43;4.93;;;22.40;93.30;;;24.79;46.50;98156.47;5224758;28;20568;-65
2022/08/24 06:51:46;;;;;;;5.43;4.90;;;22.60;92.80;;;24.89;46.36;98158.22;5224980;28;20275;-64
2022/08/24 06:54:23;;;;;;;4.47;4.15;;;22.90;92.40;;;25.03;45.92;98151.31;5224918;28;20263;-64
2022/08/24 06:56:57;;;;;;;5.00;4.60;;;22.90;92.10;;;24.89;46.67;98151.25;5222881;28;20694;-64
2022/08/24 06:59:32;;;;;;;5.28;4.78;;;22.80;92.20;;;24.73;46.75;98160.78;5224315;28;20271;-64
2022/08/24 07:02:05;;;;;;;5.55;5.05;;;22.70;92.50;;;25.32;45.66;98150.59;5224717;28;20201;-64
2022/08/24 07:04:39;;;;;;;5.18;4.78;;;23.30;92.00;;;25.44;44.48;98155.88;5224764;28;20224;-65
2022/08/24 07:07:16;;;;;;;5.20;4.78;;;23.50;91.00;;;25.43;45.24;98151.50;5219248;28;20250;-65
2022/08/24 07:09:49;;;;;;;4.68;4.35;;;23.70;90.80;;;25.88;45.20;98151.63;5224756;28;20623;-65
2022/08/24 07:12:22;;;;;;;4.80;4.40;;;24.00;91.00;;;26.14;43.59;98154.25;5221176;28;20217;-65
2022/08/24 07:14:56;;;;;;;6.00;4.30;;;24.20;89.90;;;26.62;42.73;98162.97;5223428;28;20278;-65
2022/08/24 07:17:29;;;;;;;5.30;4.15;;;24.50;89.00;;;27.01;42.11;98163.72;5224597;28;20285;-64
2022/08/24 07:20:03;;;;;;;4.72;4.32;;;24.60;88.90;;;27.16;41.59;98164.56;5221929;28;20254;-64
2022/08/24 07:22:38;;;;;;;5.35;4.07;;;24.70;88.20;;;27.71;40.55;98158.13;5220407;28;20283;-64
2022/08/24 07:25:13;;;;;;;4.93;4.47;;;24.90;87.50;;;27.94;39.59;98155.38;5225950;28;20231;-65
2022/08/24 07:27:46;;;;;;;4.20;3.90;;;25.00;85.90;;;28.19;39.32;98157.81;5225876;28;20250;-65
2022/08/24 07:30:20;;;;;;;3.75;3.45;;;25.40;86.00;;;28.11;38.43;98162.28;5224240;28;20205;-64
2022/08/24 07:32:59;;;;;;;3.80;3.50;;;25.40;84.60;;;28.41;38.63;98161.09;5225652;28;20670;-64
2022/08/24 07:35:33;;;;;;;4.00;3.70;;;25.60;84.30;;;28.69;38.95;98162.59;5221899;28;20559;-65
2022/08/24 07:38:08;;;;;;;3.70;3.50;;;25.80;84.60;;;28.91;37.72;98162.38;5225105;28;20224;-65
2022/08/24 07:40:47;;;;;;;4.00;3.60;;;26.30;82.70;;;28.70;37.82;98160.84;5225241;28;20665;-65
2022/08/24 07:43:40;;;;;;;3.85;3.53;;;26.10;81.90;;;28.49;38.14;98159.31;5224971;28;20282;-65
2022/08/24 07:46:15;;;;;;;4.32;3.45;;;26.30;80.80;;;28.07;38.37;98167.56;5225332;28;20207;-65
2022/08/24 07:48:49;;;;;;;3.70;3.40;;;26.10;80.90;;;28.18;38.61;98170.06;5225333;28;20232;-65
2022/08/24 07:51:42;;;;;;;3.17;2.97;;;26.10;80.90;;;28.34;38.91;98169.97;5225497;28;20197;-65
2022/08/24 07:54:20;;;;;;;4.13;3.70;;;26.50;81.20;;;28.02;39.02;98168.47;5224418;28;20232;-65
2022/08/24 07:56:53;;;;;;;4.13;3.50;;;26.40;80.30;;;28.25;38.96;98168.28;5223561;28;20200;-65
2022/08/24 07:59:27;;;;;;;3.63;3.33;;;26.60;80.40;;;28.10;37.58;98176.28;5222010;28;20306;-65
2022/08/24 08:02:00;;;;;;;3.28;3.00;;;26.40;78.20;;;28.34;36.62;98165.56;5223703;28;20212;-65
2022/08/24 08:04:34;;;;;;;3.38;3.08;;;26.80;76.10;;;28.56;36.29;98171.53;5223058;28;20232;-65
2022/08/24 08:07:08;;;;;;;3.08;2.80;;;27.20;75.00;;;28.67;35.46;98174.94;5222181;28;20581;-65
2022/08/24 08:09:43;;;;;;;3.15;2.70;;;27.40;72.20;;;28.55;35.97;98169.78;5224678;28;20231;-65
2022/08/24 08:12:17;;;;;;;3.53;2.83;;;27.50;73.00;;;28.73;34.69;98168.72;5224959;28;20668;-65
2022/08/24 08:14:51;;;;;;;3.00;2.70;;;27.30;71.10;;;28.67;35.36;98167.03;5223364;28;20216;-66
2022/08/24 08:17:24;;;;;;;3.20;3.00;;;27.60;71.20;;;28.82;34.94;98166.00;5223887;28;20694;-65
2022/08/24 08:19:57;;;;;;;3.28;2.80;;;27.80;71.30;;;29.10;35.36;98165.69;5225418;28;20224;-65
2022/08/24 08:25:23;;;;;;;3.58;3.28;;;28.00;72.20;;;29.12;34.69;98161.28;5224203;28;20204;-65
2022/08/24 08:27:57;;;;;;;3.17;2.97;;;28.00;71.50;;;29.12;35.89;98151.63;5223233;28;20617;-65
2022/08/24 08:30:45;;;;;;;3.38;3.17;;;28.20;72.50;;;29.39;35.56;98152.16;5224042;28;20203;-65
2022/08/24 08:33:19;;;;;;;3.33;3.00;;;28.40;71.80;;;29.59;35.83;98157.16;5224239;28;20220;-65
2022/08/24 08:36:01;;;;;;;3.85;3.08;;;28.70;72.90;;;29.91;35.38;98153.19;5223763;28;20197;-65
2022/08/24 08:38:36;;;;;;;3.28;2.97;;;29.20;71.30;;;30.15;35.42;98159.84;5220018;28;20220;-67
2022/08/24 08:42:06;;;;;;;3.53;2.90;;;29.30;71.70;;;29.75;35.90;98150.78;5223760;28;20200;-65
2022/08/24 08:44:53;;;;;;;4.03;2.88;;;28.60;73.60;;;29.52;36.17;98159.00;5201678;28;20224;-65
2022/08/24 08:48:33;;;;;;;3.05;2.60;;;28.70;72.80;;;29.58;36.80;98150.13;5223288;28;20239;-65
2022/08/24 08:51:59;;;;;;;3.20;2.90;;;28.60;72.90;;;29.74;36.97;98150.81;5141862;28;20203;-65
2022/08/24 08:54:41;;;;;;;2.97;2.72;;;28.80;73.60;;;29.54;36.75;98148.44;5188751;28;20231;-65
2022/08/24 08:57:43;;;;;;;2.92;2.72;;;28.70;73.10;;;29.15;37.48;98150.72;5221710;28;20197;-65
2022/08/24 09:00:21;;;;;;;2.90;2.70;;;28.40;74.50;;;29.53;37.76;98137.03;5222677;28;20291;-65
2022/08/24 09:03:24;;;;;;;3.45;3.15;;;28.80;73.40;;;29.91;36.83;98137.38;5222795;28;20248;-65
2022/08/24 09:06:49;;;;;;;3.10;2.80;;;29.40;72.10;;;29.54;37.05;98133.50;5214189;28;20208;-65
2022/08/24 09:09:41;;;;;;;2.90;2.70;;;29.10;71.90;;;29.97;36.58;98132.00;5222540;28;20257;-65
2022/08/24 09:12:29;;;;;;;2.90;2.60;;;29.20;72.30;;;29.99;36.00;98123.19;5218189;28;20681;-65
2022/08/24 09:15:36;;;;;;;2.70;2.50;;;29.40;72.10;;;30.19;36.28;98128.13;5220371;28;20287;-65
2022/08/24 09:18:26;;;;;;;2.63;2.38;;;29.70;71.20;;;30.10;35.58;98133.53;5198092;28;20266;-66
2022/08/24 09:21:17;;;;;;;2.92;2.72;;;29.50;70.50;;;30.03;36.07;98132.78;5223211;28;20193;-65
2022/08/24 09:24:16;;;;;;;2.67;2.50;;;29.30;71.20;;;29.78;36.23;98126.16;5221327;28;20216;-65
2022/08/24 09:27:01;;;;;;;2.38;2.17;;;29.00;72.00;;;29.98;36.71;98128.47;5222103;28;20209;-65
2022/08/24 09:29:59;;;;;;;2.80;2.60;;;29.30;72.00;;;29.91;36.67;98122.44;5222811;28;20283;-65
2022/08/24 09:32:48;;;;;;;2.90;2.70;;;29.30;71.70;;;29.89;37.37;98115.44;5223205;28;20227;-65
2022/08/24 09:35:33;;;;;;;2.97;2.53;;;29.30;72.70;;;29.99;36.81;98125.81;5222756;28;20213;-65
2022/08/24 09:38:18;;;;;;;3.30;2.72;;;29.30;72.20;;;30.10;36.67;98125.63;5222404;28;20246;-65
2022/08/24 09:41:30;;;;;;;2.65;2.55;;;29.50;72.10;;;30.03;36.87;98124.84;5221503;28;20220;-65
2022/08/24 09:44:55;;;;;;;2.35;2.17;;;29.50;71.80;;;29.89;35.52;98116.31;5221778;28;20220;-65
2022/08/24 09:48:30;;;;;;;2.30;2.17;;;29.30;70.30;;;30.19;34.36;98124.59;5209858;28;20200;-66
2022/08/24 09:51:44;;;;;;;2.15;2.00;;;29.60;68.70;;;29.75;33.37;98115.66;5203088;28;20206;-66
2022/08/24 09:55:15;;;;;;;1.92;1.77;;;29.40;65.80;;;29.83;35.08;98125.19;5220087;28;20290;-66
2022/08/24 09:58:04;;;;;;;2.45;2.28;;;29.30;68.00;;;29.48;35.78;98107.25;5213514;28;20203;-65
2022/08/24 10:00:45;;;;;;;2.30;2.20;;;29.10;68.80;;;29.07;36.22;98121.84;5218378;28;20239;-64
2022/08/24 10:03:41;;;;;;;2.30;2.10;;;28.80;69.30;;;29.28;36.33;98125.09;5211330;28;20614;-66
2022/08/24 10:06:30;;;;;;;2.60;2.40;;;28.80;69.90;;;28.91;37.38;98105.34;5218679;28;20197;-66
2022/08/24 10:09:23;;;;;;;2.22;2.13;;;28.50;71.00;;;28.91;37.03;98102.72;5220043;28;20213;-66
2022/08/24 10:12:05;;;;;;;3.78;2.20;;;28.60;70.10;;;29.13;35.92;98111.25;5220987;28;20677;-66
2022/08/24 10:14:51;;;;;;;2.70;2.50;;;28.70;69.60;;;29.45;35.50;98095.91;5220187;28;20238;-66
2022/08/24 10:17:42;;;;;;;2.78;2.58;;;28.80;68.40;;;29.22;36.00;98110.25;5215823;28;20220;-66
2022/08/24 10:20:23;;;;;;;2.70;2.50;;;28.60;70.30;;;29.40;36.15;98103.84;5215079;28;20228;-66
2022/08/24 10:23:45;;;;;;;2.40;2.28;;;28.90;69.40;;;29.31;35.77;98106.63;5218933;28;20298;-65
2022/08/24 10:26:29;;;;;;;2.72;2.53;;;28.80;69.40;;;29.00;36.77;98098.22;5219398;28;20633;-66
2022/08/24 10:29:44;;;;;;;2.88;2.67;;;28.60;69.60;;;29.12;36.08;98091.06;5223230;28;20204;-67
2022/08/24 10:32:44;;;;;;;2.50;2.33;;;28.70;69.40;;;29.07;35.74;98100.78;5223799;28;20197;-66
2022/08/24 10:35:25;;;;;;;2.53;2.42;;;28.60;68.90;;;29.11;36.44;98097.22;5215760;28;20193;-66
2022/08/24 10:45:20;;;;;;;2.33;2.20;;;28.50;68.10;;;29.18;35.92;98090.09;5228124;28;20231;-66
2022/08/24 10:48:16;;;;;;;2.80;2.60;;;28.80;68.90;;;29.22;36.23;98088.28;5222064;28;20247;-66
2022/08/24 10:50:59;;;;;;;2.75;2.55;;;28.80;68.70;;;29.11;34.81;98081.44;5222688;28;20247;-67
2022/08/24 10:53:33;;;;;;;2.50;2.30;;;28.70;67.00;;;29.37;34.78;98077.56;5225861;28;20246;-66
2022/08/24 10:56:11;;;;;;;2.55;2.35;;;28.90;67.80;;;29.38;36.19;98074.88;5225860;28;20234;-66
2022/08/24 10:58:52;;;;;;;2.40;2.20;;;28.90;68.80;;;29.47;34.38;98079.16;5225505;28;20204;-66
2022/08/24 11:01:30;;;;;;;3.00;2.30;;;28.80;67.00;;;29.52;35.55;98077.31;5225281;28;20313;-66
2022/08/24 11:04:09;;;;;;;2.40;2.20;;;29.00;67.90;;;29.51;34.23;98086.13;5225091;28;20226;-67
2022/08/24 11:07:07;;;;;;;2.47;2.28;;;29.00;66.60;;;29.46;35.37;98074.78;5226581;28;20193;-67
2022/08/24 11:09:52;;;;;;;2.25;2.10;;;29.00;67.30;;;29.39;34.93;98071.38;5226704;28;20196;-66
2022/08/24 11:12:29;;;;;;;2.15;2.05;;;28.80;66.50;;;29.30;34.95;98075.91;5220516;28;20691;-66
2022/08/24 11:15:11;;;;;;;2.05;1.88;;;28.70;67.20;;;29.21;33.47;98082.16;5226635;28;20201;-66
2022/08/24 11:17:56;;;;;;;1.95;1.50;;;28.70;64.50;;;29.05;32.99;98084.16;5228003;28;20623;-66
2022/08/24 11:20:32;;;;;;;4.70;2.17;;;28.60;64.10;;;29.00;32.87;98088.56;5225491;28;20282;-65
2022/08/24 11:23:15;;;;;;;2.33;2.13;;;28.50;63.60;;;29.10;33.27;98079.69;5225926;28;20271;-65
2022/08/24 11:25:58;;;;;;;1.95;1.85;;;28.50;64.40;;;28.95;33.50;98080.72;5219973;28;20201;-66
2022/08/24 11:28:37;;;;;;;2.83;1.90;;;28.50;64.90;;;28.96;35.22;98076.34;5225292;28;20657;-66